Honea Path, South Carolina
Current Conditions -  °F | °C
As of 4:56 PM on Thursday 23 Oct 2014 (Local Time) from KAND Reporting Station
Clear Clear  
Wind Chill: 68°   Ceiling: Unl
Heat Index: 68°   Visibility: 10mi
Dew Point: 38°   Wind: 5mph
Humidity: 33%   Direction: 270°W
Pressure: 30"   Gusts: NA
Location:  34.45°N, 82.39°W
Report Text: KAND 232056Z AUTO 27004KT 10SM CLR 20/03 A3000 RMK AO2 SLP156 T02000033 56016
Loading
Personal Weather Stations






























Interactive Weather Map
Tropical Storm Tracking
New forecast layout! Learn more

10-Day Weather Forecast

Advertisements
Track Severe Weather on mobile